sensor_id;sensor_type;location;lat;lon;timestamp;P1;durP1;ratioP1;P2;durP2;ratioP2
4460;SDS011;2243;48.812;9.232;2024-01-30T00:01:20;16.13;;;11.00;;
4460;SDS011;2243;48.812;9.232;2024-01-30T00:03:51;19.10;;;11.67;;
4460;SDS011;2243;48.812;9.232;2024-01-30T00:06:22;16.60;;;11.47;;
4460;SDS011;2243;48.812;9.232;2024-01-30T00:08:54;18.70;;;11.97;;
4460;SDS011;2243;48.812;9.232;2024-01-30T00:11:24;15.83;;;10.97;;
4460;SDS011;2243;48.812;9.232;2024-01-30T00:13:56;16.07;;;10.70;;
4460;SDS011;2243;48.812;9.232;2024-01-30T00:16:27;15.07;;;10.80;;
4460;SDS011;2243;48.812;9.232;2024-01-30T00:18:58;15.10;;;10.80;;
4460;SDS011;2243;48.812;9.232;2024-01-30T00:21:29;19.50;;;12.43;;
4460;SDS011;2243;48.812;9.232;2024-01-30T00:24:00;17.30;;;11.83;;
4460;SDS011;2243;48.812;9.232;2024-01-30T00:26:31;16.03;;;11.63;;
4460;SDS011;2243;48.812;9.232;2024-01-30T00:29:03;12.60;;;10.90;;
4460;SDS011;2243;48.812;9.232;2024-01-30T00:31:34;17.17;;;10.50;;
4460;SDS011;2243;48.812;9.232;2024-01-30T00:34:10;18.87;;;10.53;;
4460;SDS011;2243;48.812;9.232;2024-01-30T00:36:41;15.47;;;10.50;;
4460;SDS011;2243;48.812;9.232;2024-01-30T00:39:12;16.70;;;11.03;;
4460;SDS011;2243;48.812;9.232;2024-01-30T00:41:45;14.97;;;10.80;;
4460;SDS011;2243;48.812;9.232;2024-01-30T00:44:16;20.90;;;11.87;;
4460;SDS011;2243;48.812;9.232;2024-01-30T00:46:47;15.00;;;10.13;;
4460;SDS011;2243;48.812;9.232;2024-01-30T00:49:18;17.07;;;11.10;;
4460;SDS011;2243;48.812;9.232;2024-01-30T00:51:49;27.07;;;10.10;;
4460;SDS011;2243;48.812;9.232;2024-01-30T00:54:20;13.83;;;10.70;;
4460;SDS011;2243;48.812;9.232;2024-01-30T00:56:51;14.90;;;10.60;;
4460;SDS011;2243;48.812;9.232;2024-01-30T00:59:22;13.10;;;10.60;;
4460;SDS011;2243;48.812;9.232;2024-01-30T01:01:53;17.13;;;10.40;;
4460;SDS011;2243;48.812;9.232;2024-01-30T01:04:24;14.30;;;10.07;;
4460;SDS011;2243;48.812;9.232;2024-01-30T01:06:57;19.23;;;11.87;;
4460;SDS011;2243;48.812;9.232;2024-01-30T01:09:28;18.83;;;12.33;;
4460;SDS011;2243;48.812;9.232;2024-01-30T01:11:59;21.60;;;12.60;;
4460;SDS011;2243;48.812;9.232;2024-01-30T01:14:30;17.70;;;11.90;;
4460;SDS011;2243;48.812;9.232;2024-01-30T01:17:01;16.93;;;12.03;;
4460;SDS011;2243;48.812;9.232;2024-01-30T01:19:32;17.07;;;12.50;;
4460;SDS011;2243;48.812;9.232;2024-01-30T01:22:03;15.30;;;12.10;;
4460;SDS011;2243;48.812;9.232;2024-01-30T01:24:35;24.43;;;13.47;;
4460;SDS011;2243;48.812;9.232;2024-01-30T01:27:06;19.93;;;12.50;;
4460;SDS011;2243;48.812;9.232;2024-01-30T01:29:37;17.60;;;13.27;;
4460;SDS011;2243;48.812;9.232;2024-01-30T01:32:08;19.90;;;13.67;;
4460;SDS011;2243;48.812;9.232;2024-01-30T01:34:39;24.50;;;13.43;;
4460;SDS011;2243;48.812;9.232;2024-01-30T01:37:10;18.27;;;12.90;;
4460;SDS011;2243;48.812;9.232;2024-01-30T01:39:41;18.03;;;13.47;;
4460;SDS011;2243;48.812;9.232;2024-01-30T01:42:12;21.63;;;12.90;;
4460;SDS011;2243;48.812;9.232;2024-01-30T01:44:43;18.70;;;13.80;;
4460;SDS011;2243;48.812;9.232;2024-01-30T01:47:14;18.63;;;12.73;;
4460;SDS011;2243;48.812;9.232;2024-01-30T01:49:45;21.80;;;13.80;;
4460;SDS011;2243;48.812;9.232;2024-01-30T01:52:17;20.30;;;13.97;;
4460;SDS011;2243;48.812;9.232;2024-01-30T01:54:48;21.80;;;13.30;;
4460;SDS011;2243;48.812;9.232;2024-01-30T01:57:19;19.23;;;13.17;;
4460;SDS011;2243;48.812;9.232;2024-01-30T01:59:50;24.57;;;14.40;;
4460;SDS011;2243;48.812;9.232;2024-01-30T02:02:21;20.30;;;12.93;;
4460;SDS011;2243;48.812;9.232;2024-01-30T02:04:55;19.73;;;13.17;;
4460;SDS011;2243;48.812;9.232;2024-01-30T02:07:27;19.83;;;12.70;;
4460;SDS011;2243;48.812;9.232;2024-01-30T02:09:59;18.20;;;12.73;;
4460;SDS011;2243;48.812;9.232;2024-01-30T02:12:30;15.70;;;11.73;;
4460;SDS011;2243;48.812;9.232;2024-01-30T02:15:01;29.97;;;14.40;;
4460;SDS011;2243;48.812;9.232;2024-01-30T02:17:32;19.97;;;12.33;;
4460;SDS011;2243;48.812;9.232;2024-01-30T02:20:03;17.47;;;11.73;;
4460;SDS011;2243;48.812;9.232;2024-01-30T02:22:35;20.10;;;12.77;;
4460;SDS011;2243;48.812;9.232;2024-01-30T02:25:07;18.00;;;11.97;;
4460;SDS011;2243;48.812;9.232;2024-01-30T02:27:38;16.03;;;12.27;;
4460;SDS011;2243;48.812;9.232;2024-01-30T02:30:10;13.33;;;10.43;;
4460;SDS011;2243;48.812;9.232;2024-01-30T02:32:41;21.80;;;11.07;;
4460;SDS011;2243;48.812;9.232;2024-01-30T02:35:12;15.57;;;11.60;;
4460;SDS011;2243;48.812;9.232;2024-01-30T02:37:43;16.03;;;11.53;;
4460;SDS011;2243;48.812;9.232;2024-01-30T02:40:14;14.87;;;11.50;;
4460;SDS011;2243;48.812;9.232;2024-01-30T02:42:45;19.20;;;12.73;;
4460;SDS011;2243;48.812;9.232;2024-01-30T02:45:16;19.70;;;11.67;;
4460;SDS011;2243;48.812;9.232;2024-01-30T02:47:48;17.27;;;11.73;;
4460;SDS011;2243;48.812;9.232;2024-01-30T02:50:19;15.87;;;11.43;;
4460;SDS011;2243;48.812;9.232;2024-01-30T02:52:50;15.33;;;11.07;;
4460;SDS011;2243;48.812;9.232;2024-01-30T02:55:21;17.20;;;11.07;;
4460;SDS011;2243;48.812;9.232;2024-01-30T02:57:52;15.53;;;10.13;;
4460;SDS011;2243;48.812;9.232;2024-01-30T03:00:23;15.30;;;11.93;;
4460;SDS011;2243;48.812;9.232;2024-01-30T03:02:54;17.90;;;11.47;;
4460;SDS011;2243;48.812;9.232;2024-01-30T03:05:25;15.37;;;11.00;;
4460;SDS011;2243;48.812;9.232;2024-01-30T03:07:56;18.10;;;11.60;;
4460;SDS011;2243;48.812;9.232;2024-01-30T03:10:27;14.33;;;10.37;;
4460;SDS011;2243;48.812;9.232;2024-01-30T03:12:58;17.23;;;10.73;;
4460;SDS011;2243;48.812;9.232;2024-01-30T03:15:29;17.43;;;10.57;;
4460;SDS011;2243;48.812;9.232;2024-01-30T03:18:01;14.10;;;10.50;;
4460;SDS011;2243;48.812;9.232;2024-01-30T03:20:34;16.27;;;11.60;;
4460;SDS011;2243;48.812;9.232;2024-01-30T03:23:05;14.83;;;11.50;;
4460;SDS011;2243;48.812;9.232;2024-01-30T03:25:35;14.20;;;10.80;;
4460;SDS011;2243;48.812;9.232;2024-01-30T03:28:06;18.47;;;11.27;;
4460;SDS011;2243;48.812;9.232;2024-01-30T03:30:37;22.93;;;12.23;;
4460;SDS011;2243;48.812;9.232;2024-01-30T03:33:08;18.50;;;11.67;;
4460;SDS011;2243;48.812;9.232;2024-01-30T03:35:39;12.40;;;10.30;;
4460;SDS011;2243;48.812;9.232;2024-01-30T03:38:10;14.70;;;11.07;;
4460;SDS011;2243;48.812;9.232;2024-01-30T03:40:41;23.13;;;10.80;;
4460;SDS011;2243;48.812;9.232;2024-01-30T03:43:12;11.23;;;9.50;;
4460;SDS011;2243;48.812;9.232;2024-01-30T03:45:43;14.20;;;9.47;;
4460;SDS011;2243;48.812;9.232;2024-01-30T03:48:14;17.00;;;11.10;;
4460;SDS011;2243;48.812;9.232;2024-01-30T03:50:45;14.13;;;10.00;;
4460;SDS011;2243;48.812;9.232;2024-01-30T03:53:17;14.53;;;10.60;;
4460;SDS011;2243;48.812;9.232;2024-01-30T03:55:48;14.00;;;10.20;;
4460;SDS011;2243;48.812;9.232;2024-01-30T03:58:18;10.87;;;9.27;;
4460;SDS011;2243;48.812;9.232;2024-01-30T04:00:50;13.30;;;9.60;;
4460;SDS011;2243;48.812;9.232;2024-01-30T04:03:21;22.63;;;11.17;;
4460;SDS011;2243;48.812;9.232;2024-01-30T04:05:52;13.97;;;9.93;;
4460;SDS011;2243;48.812;9.232;2024-01-30T04:08:23;16.13;;;11.17;;
4460;SDS011;2243;48.812;9.232;2024-01-30T04:10:54;13.43;;;9.63;;
4460;SDS011;2243;48.812;9.232;2024-01-30T04:13:25;13.53;;;10.53;;
4460;SDS011;2243;48.812;9.232;2024-01-30T04:15:56;16.60;;;10.77;;
4460;SDS011;2243;48.812;9.232;2024-01-30T04:18:31;14.70;;;10.43;;
4460;SDS011;2243;48.812;9.232;2024-01-30T04:21:03;18.67;;;10.87;;
4460;SDS011;2243;48.812;9.232;2024-01-30T04:23:35;17.10;;;10.43;;
4460;SDS011;2243;48.812;9.232;2024-01-30T04:26:05;12.57;;;9.20;;
4460;SDS011;2243;48.812;9.232;2024-01-30T04:28:37;12.30;;;10.20;;
4460;SDS011;2243;48.812;9.232;2024-01-30T04:31:08;14.80;;;10.60;;
4460;SDS011;2243;48.812;9.232;2024-01-30T04:33:39;12.97;;;10.20;;
4460;SDS011;2243;48.812;9.232;2024-01-30T04:36:10;12.70;;;10.37;;
4460;SDS011;2243;48.812;9.232;2024-01-30T04:38:41;16.80;;;10.30;;
4460;SDS011;2243;48.812;9.232;2024-01-30T04:41:12;16.33;;;10.93;;
4460;SDS011;2243;48.812;9.232;2024-01-30T04:43:43;15.47;;;11.10;;
4460;SDS011;2243;48.812;9.232;2024-01-30T04:46:14;16.07;;;10.00;;
4460;SDS011;2243;48.812;9.232;2024-01-30T04:48:45;20.83;;;11.43;;
4460;SDS011;2243;48.812;9.232;2024-01-30T04:51:16;15.43;;;11.30;;
4460;SDS011;2243;48.812;9.232;2024-01-30T04:53:47;14.00;;;10.63;;
4460;SDS011;2243;48.812;9.232;2024-01-30T04:56:17;12.10;;;10.27;;
4460;SDS011;2243;48.812;9.232;2024-01-30T04:58:48;15.67;;;11.30;;
4460;SDS011;2243;48.812;9.232;2024-01-30T05:01:19;18.23;;;9.93;;
4460;SDS011;2243;48.812;9.232;2024-01-30T05:03:51;12.80;;;9.47;;
4460;SDS011;2243;48.812;9.232;2024-01-30T05:06:25;13.20;;;10.20;;
4460;SDS011;2243;48.812;9.232;2024-01-30T05:08:57;17.07;;;10.63;;
4460;SDS011;2243;48.812;9.232;2024-01-30T05:11:28;14.40;;;10.60;;
4460;SDS011;2243;48.812;9.232;2024-01-30T05:13:59;13.73;;;10.57;;
4460;SDS011;2243;48.812;9.232;2024-01-30T05:16:30;20.13;;;9.63;;
4460;SDS011;2243;48.812;9.232;2024-01-30T05:19:02;17.53;;;10.63;;
4460;SDS011;2243;48.812;9.232;2024-01-30T05:21:33;14.07;;;9.97;;
4460;SDS011;2243;48.812;9.232;2024-01-30T05:24:05;11.87;;;10.03;;
4460;SDS011;2243;48.812;9.232;2024-01-30T05:26:36;17.23;;;10.63;;
4460;SDS011;2243;48.812;9.232;2024-01-30T05:29:07;12.80;;;9.80;;
4460;SDS011;2243;48.812;9.232;2024-01-30T05:31:38;13.17;;;10.30;;
4460;SDS011;2243;48.812;9.232;2024-01-30T05:34:09;11.87;;;9.77;;
4460;SDS011;2243;48.812;9.232;2024-01-30T05:36:40;14.23;;;11.10;;
4460;SDS011;2243;48.812;9.232;2024-01-30T05:39:11;14.33;;;10.43;;
4460;SDS011;2243;48.812;9.232;2024-01-30T05:41:42;17.73;;;11.00;;
4460;SDS011;2243;48.812;9.232;2024-01-30T05:44:13;11.23;;;9.97;;
4460;SDS011;2243;48.812;9.232;2024-01-30T05:46:44;16.70;;;10.90;;
4460;SDS011;2243;48.812;9.232;2024-01-30T05:49:14;18.03;;;10.03;;
4460;SDS011;2243;48.812;9.232;2024-01-30T05:51:45;16.03;;;10.47;;
4460;SDS011;2243;48.812;9.232;2024-01-30T05:54:16;16.63;;;9.70;;
4460;SDS011;2243;48.812;9.232;2024-01-30T05:56:47;14.20;;;9.43;;
4460;SDS011;2243;48.812;9.232;2024-01-30T05:59:18;20.40;;;10.43;;
4460;SDS011;2243;48.812;9.232;2024-01-30T06:01:49;15.67;;;10.53;;
4460;SDS011;2243;48.812;9.232;2024-01-30T06:04:20;18.40;;;11.10;;
4460;SDS011;2243;48.812;9.232;2024-01-30T06:06:51;19.83;;;10.30;;
4460;SDS011;2243;48.812;9.232;2024-01-30T06:09:23;19.60;;;10.97;;
4460;SDS011;2243;48.812;9.232;2024-01-30T06:11:53;13.73;;;10.53;;
4460;SDS011;2243;48.812;9.232;2024-01-30T06:14:25;16.63;;;10.60;;
4460;SDS011;2243;48.812;9.232;2024-01-30T06:16:56;13.87;;;10.10;;
4460;SDS011;2243;48.812;9.232;2024-01-30T06:19:27;17.00;;;10.57;;
4460;SDS011;2243;48.812;9.232;2024-01-30T06:21:58;16.83;;;11.37;;
4460;SDS011;2243;48.812;9.232;2024-01-30T06:24:29;13.87;;;9.70;;
4460;SDS011;2243;48.812;9.232;2024-01-30T06:27:00;12.27;;;10.03;;
4460;SDS011;2243;48.812;9.232;2024-01-30T06:29:31;14.50;;;10.87;;
4460;SDS011;2243;48.812;9.232;2024-01-30T06:32:02;17.20;;;11.27;;
4460;SDS011;2243;48.812;9.232;2024-01-30T06:34:41;24.53;;;10.57;;
4460;SDS011;2243;48.812;9.232;2024-01-30T06:37:14;15.23;;;10.23;;
4460;SDS011;2243;48.812;9.232;2024-01-30T06:39:45;18.47;;;10.43;;
4460;SDS011;2243;48.812;9.232;2024-01-30T06:42:16;14.87;;;10.30;;
4460;SDS011;2243;48.812;9.232;2024-01-30T06:44:47;22.03;;;10.10;;
4460;SDS011;2243;48.812;9.232;2024-01-30T06:47:18;10.90;;;9.00;;
4460;SDS011;2243;48.812;9.232;2024-01-30T06:49:49;14.43;;;10.87;;
4460;SDS011;2243;48.812;9.232;2024-01-30T06:52:20;15.80;;;10.33;;
4460;SDS011;2243;48.812;9.232;2024-01-30T06:54:51;15.67;;;11.40;;
4460;SDS011;2243;48.812;9.232;2024-01-30T06:57:22;19.53;;;12.33;;
4460;SDS011;2243;48.812;9.232;2024-01-30T06:59:53;18.47;;;12.00;;
4460;SDS011;2243;48.812;9.232;2024-01-30T07:02:24;18.30;;;12.03;;
4460;SDS011;2243;48.812;9.232;2024-01-30T07:04:55;16.70;;;12.10;;
4460;SDS011;2243;48.812;9.232;2024-01-30T07:07:26;17.73;;;12.67;;
4460;SDS011;2243;48.812;9.232;2024-01-30T07:09:57;16.00;;;11.83;;
4460;SDS011;2243;48.812;9.232;2024-01-30T07:12:28;14.33;;;11.70;;
4460;SDS011;2243;48.812;9.232;2024-01-30T07:15:01;15.97;;;11.33;;
4460;SDS011;2243;48.812;9.232;2024-01-30T07:17:34;20.37;;;12.47;;
4460;SDS011;2243;48.812;9.232;2024-01-30T07:20:06;18.90;;;11.20;;
4460;SDS011;2243;48.812;9.232;2024-01-30T07:22:37;16.03;;;10.90;;
4460;SDS011;2243;48.812;9.232;2024-01-30T07:25:08;17.40;;;11.60;;
4460;SDS011;2243;48.812;9.232;2024-01-30T07:27:39;21.60;;;13.40;;
4460;SDS011;2243;48.812;9.232;2024-01-30T07:30:11;23.87;;;12.30;;
4460;SDS011;2243;48.812;9.232;2024-01-30T07:32:42;19.20;;;12.40;;
4460;SDS011;2243;48.812;9.232;2024-01-30T07:35:13;18.37;;;12.63;;
4460;SDS011;2243;48.812;9.232;2024-01-30T07:37:45;18.83;;;12.13;;
4460;SDS011;2243;48.812;9.232;2024-01-30T07:40:16;27.23;;;12.43;;
4460;SDS011;2243;48.812;9.232;2024-01-30T07:42:48;15.77;;;11.80;;
4460;SDS011;2243;48.812;9.232;2024-01-30T07:45:19;20.07;;;11.70;;
4460;SDS011;2243;48.812;9.232;2024-01-30T07:47:54;15.43;;;11.07;;
4460;SDS011;2243;48.812;9.232;2024-01-30T07:50:26;18.43;;;11.23;;
4460;SDS011;2243;48.812;9.232;2024-01-30T07:52:59;20.90;;;12.50;;
4460;SDS011;2243;48.812;9.232;2024-01-30T07:55:31;19.40;;;11.17;;
4460;SDS011;2243;48.812;9.232;2024-01-30T07:58:03;13.13;;;10.40;;
4460;SDS011;2243;48.812;9.232;2024-01-30T08:00:35;15.57;;;12.27;;
4460;SDS011;2243;48.812;9.232;2024-01-30T08:03:07;14.73;;;11.47;;
4460;SDS011;2243;48.812;9.232;2024-01-30T08:05:38;17.13;;;12.13;;
4460;SDS011;2243;48.812;9.232;2024-01-30T08:08:09;13.13;;;10.10;;
4460;SDS011;2243;48.812;9.232;2024-01-30T08:10:40;15.43;;;10.50;;
4460;SDS011;2243;48.812;9.232;2024-01-30T08:13:11;18.50;;;11.53;;
4460;SDS011;2243;48.812;9.232;2024-01-30T08:15:43;15.53;;;12.00;;
4460;SDS011;2243;48.812;9.232;2024-01-30T08:18:14;13.90;;;10.33;;
4460;SDS011;2243;48.812;9.232;2024-01-30T08:20:45;21.53;;;11.30;;
4460;SDS011;2243;48.812;9.232;2024-01-30T08:23:16;14.63;;;10.93;;
4460;SDS011;2243;48.812;9.232;2024-01-30T08:25:47;15.00;;;11.40;;
4460;SDS011;2243;48.812;9.232;2024-01-30T08:28:18;19.23;;;11.70;;
4460;SDS011;2243;48.812;9.232;2024-01-30T08:30:51;18.10;;;11.70;;
4460;SDS011;2243;48.812;9.232;2024-01-30T08:33:22;19.40;;;11.33;;
4460;SDS011;2243;48.812;9.232;2024-01-30T08:35:53;16.20;;;10.93;;
4460;SDS011;2243;48.812;9.232;2024-01-30T08:38:24;13.50;;;11.00;;
4460;SDS011;2243;48.812;9.232;2024-01-30T08:40:56;13.67;;;11.27;;
4460;SDS011;2243;48.812;9.232;2024-01-30T08:43:27;16.53;;;11.57;;
4460;SDS011;2243;48.812;9.232;2024-01-30T08:46:00;14.50;;;10.83;;
4460;SDS011;2243;48.812;9.232;2024-01-30T08:48:32;13.77;;;11.00;;
4460;SDS011;2243;48.812;9.232;2024-01-30T08:51:03;14.87;;;10.70;;
4460;SDS011;2243;48.812;9.232;2024-01-30T08:53:39;18.00;;;11.50;;
4460;SDS011;2243;48.812;9.232;2024-01-30T08:56:10;19.07;;;11.87;;
4460;SDS011;2243;48.812;9.232;2024-01-30T08:58:41;25.13;;;12.70;;
4460;SDS011;2243;48.812;9.232;2024-01-30T09:01:12;13.73;;;10.13;;
4460;SDS011;2243;48.812;9.232;2024-01-30T09:03:43;19.83;;;12.20;;
4460;SDS011;2243;48.812;9.232;2024-01-30T09:06:17;20.33;;;12.30;;
4460;SDS011;2243;48.812;9.232;2024-01-30T09:08:48;18.17;;;12.07;;
4460;SDS011;2243;48.812;9.232;2024-01-30T09:11:19;18.20;;;13.30;;
4460;SDS011;2243;48.812;9.232;2024-01-30T09:13:50;13.83;;;11.20;;
4460;SDS011;2243;48.812;9.232;2024-01-30T09:16:21;18.50;;;12.20;;
4460;SDS011;2243;48.812;9.232;2024-01-30T09:18:52;16.90;;;12.20;;
4460;SDS011;2243;48.812;9.232;2024-01-30T09:21:23;25.40;;;13.57;;
4460;SDS011;2243;48.812;9.232;2024-01-30T09:23:54;19.00;;;12.27;;
4460;SDS011;2243;48.812;9.232;2024-01-30T09:26:25;22.70;;;12.90;;
4460;SDS011;2243;48.812;9.232;2024-01-30T09:28:56;21.47;;;13.20;;
4460;SDS011;2243;48.812;9.232;2024-01-30T09:31:28;23.40;;;11.87;;
4460;SDS011;2243;48.812;9.232;2024-01-30T09:33:59;14.40;;;11.00;;
4460;SDS011;2243;48.812;9.232;2024-01-30T09:36:31;15.00;;;11.50;;
4460;SDS011;2243;48.812;9.232;2024-01-30T09:39:03;18.43;;;11.67;;
4460;SDS011;2243;48.812;9.232;2024-01-30T09:41:37;23.67;;;11.60;;
4460;SDS011;2243;48.812;9.232;2024-01-30T09:44:36;17.63;;;11.43;;
4460;SDS011;2243;48.812;9.232;2024-01-30T09:47:09;17.63;;;11.50;;
4460;SDS011;2243;48.812;9.232;2024-01-30T09:49:40;18.70;;;13.13;;
4460;SDS011;2243;48.812;9.232;2024-01-30T09:52:14;15.07;;;11.17;;
4460;SDS011;2243;48.812;9.232;2024-01-30T09:54:46;14.73;;;11.63;;
4460;SDS011;2243;48.812;9.232;2024-01-30T09:57:19;13.77;;;10.30;;
4460;SDS011;2243;48.812;9.232;2024-01-30T09:59:51;20.37;;;11.40;;
4460;SDS011;2243;48.812;9.232;2024-01-30T10:02:24;20.73;;;12.30;;
4460;SDS011;2243;48.812;9.232;2024-01-30T10:04:55;18.70;;;11.73;;
4460;SDS011;2243;48.812;9.232;2024-01-30T10:07:26;16.30;;;11.33;;
4460;SDS011;2243;48.812;9.232;2024-01-30T10:09:57;15.50;;;11.20;;
4460;SDS011;2243;48.812;9.232;2024-01-30T10:12:29;17.73;;;11.10;;
4460;SDS011;2243;48.812;9.232;2024-01-30T10:15:00;21.00;;;11.90;;
4460;SDS011;2243;48.812;9.232;2024-01-30T10:17:31;19.17;;;11.83;;
4460;SDS011;2243;48.812;9.232;2024-01-30T10:20:04;15.33;;;11.30;;
4460;SDS011;2243;48.812;9.232;2024-01-30T10:22:36;19.17;;;11.97;;
4460;SDS011;2243;48.812;9.232;2024-01-30T10:25:07;13.97;;;11.07;;
4460;SDS011;2243;48.812;9.232;2024-01-30T10:27:39;18.47;;;11.70;;
4460;SDS011;2243;48.812;9.232;2024-01-30T10:30:10;13.90;;;10.63;;
4460;SDS011;2243;48.812;9.232;2024-01-30T10:32:42;14.73;;;10.67;;
4460;SDS011;2243;48.812;9.232;2024-01-30T10:35:13;14.80;;;10.60;;
4460;SDS011;2243;48.812;9.232;2024-01-30T10:37:44;15.90;;;10.53;;
4460;SDS011;2243;48.812;9.232;2024-01-30T10:40:18;17.87;;;10.10;;
4460;SDS011;2243;48.812;9.232;2024-01-30T10:42:55;17.23;;;10.33;;
4460;SDS011;2243;48.812;9.232;2024-01-30T10:45:27;12.80;;;10.73;;
4460;SDS011;2243;48.812;9.232;2024-01-30T10:47:59;17.50;;;9.93;;
4460;SDS011;2243;48.812;9.232;2024-01-30T10:50:32;21.10;;;9.50;;
4460;SDS011;2243;48.812;9.232;2024-01-30T10:53:14;19.50;;;9.53;;
4460;SDS011;2243;48.812;9.232;2024-01-30T10:55:48;23.73;;;10.90;;
4460;SDS011;2243;48.812;9.232;2024-01-30T10:58:21;14.63;;;9.80;;
4460;SDS011;2243;48.812;9.232;2024-01-30T11:00:53;17.60;;;10.70;;
4460;SDS011;2243;48.812;9.232;2024-01-30T11:03:25;15.27;;;10.00;;
4460;SDS011;2243;48.812;9.232;2024-01-30T11:05:58;13.73;;;10.20;;
4460;SDS011;2243;48.812;9.232;2024-01-30T11:08:31;17.73;;;11.30;;
4460;SDS011;2243;48.812;9.232;2024-01-30T11:11:03;17.97;;;10.90;;
4460;SDS011;2243;48.812;9.232;2024-01-30T11:13:40;17.30;;;10.13;;
4460;SDS011;2243;48.812;9.232;2024-01-30T11:16:11;16.63;;;10.20;;
4460;SDS011;2243;48.812;9.232;2024-01-30T11:18:42;25.30;;;9.90;;
4460;SDS011;2243;48.812;9.232;2024-01-30T11:21:21;16.23;;;10.13;;
4460;SDS011;2243;48.812;9.232;2024-01-30T11:23:55;18.60;;;10.13;;
4460;SDS011;2243;48.812;9.232;2024-01-30T11:26:27;20.33;;;9.47;;
4460;SDS011;2243;48.812;9.232;2024-01-30T11:29:02;13.17;;;10.33;;
4460;SDS011;2243;48.812;9.232;2024-01-30T11:31:34;10.40;;;9.30;;
4460;SDS011;2243;48.812;9.232;2024-01-30T11:34:05;16.87;;;10.93;;
4460;SDS011;2243;48.812;9.232;2024-01-30T11:36:38;12.00;;;9.37;;
4460;SDS011;2243;48.812;9.232;2024-01-30T11:39:12;19.70;;;10.63;;
4460;SDS011;2243;48.812;9.232;2024-01-30T11:41:47;12.00;;;9.60;;
4460;SDS011;2243;48.812;9.232;2024-01-30T11:44:22;16.73;;;9.70;;
4460;SDS011;2243;48.812;9.232;2024-01-30T11:46:53;17.10;;;10.80;;
4460;SDS011;2243;48.812;9.232;2024-01-30T11:49:24;18.40;;;10.53;;
4460;SDS011;2243;48.812;9.232;2024-01-30T11:51:56;12.33;;;9.83;;
4460;SDS011;2243;48.812;9.232;2024-01-30T11:54:28;19.20;;;10.40;;
4460;SDS011;2243;48.812;9.232;2024-01-30T11:56:59;15.90;;;9.67;;
4460;SDS011;2243;48.812;9.232;2024-01-30T11:59:30;19.93;;;10.10;;
4460;SDS011;2243;48.812;9.232;2024-01-30T12:02:01;19.50;;;9.70;;
4460;SDS011;2243;48.812;9.232;2024-01-30T12:04:32;13.80;;;9.67;;
4460;SDS011;2243;48.812;9.232;2024-01-30T12:07:03;17.63;;;10.00;;
4460;SDS011;2243;48.812;9.232;2024-01-30T12:09:34;13.17;;;9.30;;
4460;SDS011;2243;48.812;9.232;2024-01-30T12:12:06;18.23;;;10.10;;
4460;SDS011;2243;48.812;9.232;2024-01-30T12:14:42;17.63;;;10.97;;
4460;SDS011;2243;48.812;9.232;2024-01-30T12:17:22;19.47;;;11.60;;
4460;SDS011;2243;48.812;9.232;2024-01-30T12:20:02;16.77;;;9.83;;
4460;SDS011;2243;48.812;9.232;2024-01-30T12:22:37;15.93;;;10.47;;
4460;SDS011;2243;48.812;9.232;2024-01-30T12:25:11;16.53;;;9.60;;
4460;SDS011;2243;48.812;9.232;2024-01-30T12:27:47;19.77;;;12.60;;
4460;SDS011;2243;48.812;9.232;2024-01-30T12:30:21;15.57;;;10.57;;
4460;SDS011;2243;48.812;9.232;2024-01-30T12:32:53;28.17;;;10.80;;
4460;SDS011;2243;48.812;9.232;2024-01-30T12:35:24;19.33;;;11.30;;
4460;SDS011;2243;48.812;9.232;2024-01-30T12:38:02;23.03;;;11.10;;
4460;SDS011;2243;48.812;9.232;2024-01-30T12:40:34;15.47;;;10.33;;
4460;SDS011;2243;48.812;9.232;2024-01-30T12:43:07;22.50;;;11.10;;
4460;SDS011;2243;48.812;9.232;2024-01-30T12:45:38;19.20;;;11.40;;
4460;SDS011;2243;48.812;9.232;2024-01-30T12:48:09;19.80;;;10.80;;
4460;SDS011;2243;48.812;9.232;2024-01-30T12:50:40;15.10;;;11.30;;
4460;SDS011;2243;48.812;9.232;2024-01-30T12:53:11;18.77;;;11.10;;
4460;SDS011;2243;48.812;9.232;2024-01-30T12:55:43;16.37;;;11.17;;
4460;SDS011;2243;48.812;9.232;2024-01-30T12:58:15;16.50;;;10.93;;
4460;SDS011;2243;48.812;9.232;2024-01-30T13:00:46;16.77;;;12.70;;
4460;SDS011;2243;48.812;9.232;2024-01-30T13:03:17;17.97;;;11.97;;
4460;SDS011;2243;48.812;9.232;2024-01-30T13:05:48;16.07;;;12.00;;
4460;SDS011;2243;48.812;9.232;2024-01-30T13:08:19;16.37;;;12.27;;
4460;SDS011;2243;48.812;9.232;2024-01-30T13:10:51;18.93;;;12.20;;
4460;SDS011;2243;48.812;9.232;2024-01-30T13:13:23;19.00;;;12.70;;
4460;SDS011;2243;48.812;9.232;2024-01-30T13:15:57;15.00;;;12.03;;
4460;SDS011;2243;48.812;9.232;2024-01-30T13:18:28;18.73;;;12.33;;
4460;SDS011;2243;48.812;9.232;2024-01-30T13:20:59;22.37;;;12.50;;
4460;SDS011;2243;48.812;9.232;2024-01-30T13:23:30;15.03;;;11.10;;
4460;SDS011;2243;48.812;9.232;2024-01-30T13:26:01;15.50;;;11.23;;
4460;SDS011;2243;48.812;9.232;2024-01-30T13:28:32;13.73;;;11.40;;
4460;SDS011;2243;48.812;9.232;2024-01-30T13:31:03;16.70;;;11.40;;
4460;SDS011;2243;48.812;9.232;2024-01-30T13:33:35;17.53;;;12.73;;
4460;SDS011;2243;48.812;9.232;2024-01-30T13:36:07;20.93;;;12.13;;
4460;SDS011;2243;48.812;9.232;2024-01-30T13:38:40;18.57;;;11.90;;
4460;SDS011;2243;48.812;9.232;2024-01-30T13:41:11;23.53;;;12.77;;
4460;SDS011;2243;48.812;9.232;2024-01-30T13:43:43;20.03;;;11.63;;
4460;SDS011;2243;48.812;9.232;2024-01-30T13:46:14;19.10;;;12.33;;
4460;SDS011;2243;48.812;9.232;2024-01-30T13:48:45;15.33;;;11.80;;
4460;SDS011;2243;48.812;9.232;2024-01-30T13:51:17;16.73;;;11.37;;
4460;SDS011;2243;48.812;9.232;2024-01-30T13:53:48;16.50;;;11.80;;
4460;SDS011;2243;48.812;9.232;2024-01-30T13:56:20;23.70;;;10.50;;
4460;SDS011;2243;48.812;9.232;2024-01-30T13:58:51;16.80;;;11.20;;
4460;SDS011;2243;48.812;9.232;2024-01-30T14:01:22;17.33;;;11.00;;
4460;SDS011;2243;48.812;9.232;2024-01-30T14:03:54;17.23;;;11.53;;
4460;SDS011;2243;48.812;9.232;2024-01-30T14:06:25;15.43;;;10.87;;
4460;SDS011;2243;48.812;9.232;2024-01-30T14:08:56;17.47;;;11.80;;
4460;SDS011;2243;48.812;9.232;2024-01-30T14:11:37;18.83;;;11.43;;
4460;SDS011;2243;48.812;9.232;2024-01-30T14:14:08;16.57;;;11.80;;
4460;SDS011;2243;48.812;9.232;2024-01-30T14:16:40;16.00;;;11.93;;
4460;SDS011;2243;48.812;9.232;2024-01-30T14:19:11;12.40;;;10.97;;
4460;SDS011;2243;48.812;9.232;2024-01-30T14:21:42;19.47;;;12.10;;
4460;SDS011;2243;48.812;9.232;2024-01-30T14:24:14;18.33;;;12.13;;
4460;SDS011;2243;48.812;9.232;2024-01-30T14:26:44;18.07;;;11.93;;
4460;SDS011;2243;48.812;9.232;2024-01-30T14:29:17;20.20;;;13.03;;
4460;SDS011;2243;48.812;9.232;2024-01-30T14:31:47;18.30;;;12.13;;
4460;SDS011;2243;48.812;9.232;2024-01-30T14:34:18;26.80;;;12.43;;
4460;SDS011;2243;48.812;9.232;2024-01-30T14:36:49;23.20;;;13.67;;
4460;SDS011;2243;48.812;9.232;2024-01-30T14:39:21;14.03;;;11.30;;
4460;SDS011;2243;48.812;9.232;2024-01-30T14:41:52;17.93;;;11.50;;
4460;SDS011;2243;48.812;9.232;2024-01-30T14:44:23;13.97;;;10.63;;
4460;SDS011;2243;48.812;9.232;2024-01-30T14:46:54;18.53;;;12.07;;
4460;SDS011;2243;48.812;9.232;2024-01-30T14:49:25;19.53;;;12.60;;
4460;SDS011;2243;48.812;9.232;2024-01-30T14:51:56;15.03;;;11.03;;
4460;SDS011;2243;48.812;9.232;2024-01-30T14:54:29;12.63;;;10.70;;
4460;SDS011;2243;48.812;9.232;2024-01-30T14:57:00;17.23;;;11.60;;
4460;SDS011;2243;48.812;9.232;2024-01-30T14:59:31;22.70;;;14.13;;
4460;SDS011;2243;48.812;9.232;2024-01-30T15:02:03;21.97;;;14.13;;
4460;SDS011;2243;48.812;9.232;2024-01-30T15:04:34;14.63;;;11.83;;
4460;SDS011;2243;48.812;9.232;2024-01-30T15:07:05;18.97;;;14.27;;
4460;SDS011;2243;48.812;9.232;2024-01-30T15:09:37;19.93;;;12.17;;
4460;SDS011;2243;48.812;9.232;2024-01-30T15:12:08;12.83;;;11.43;;
4460;SDS011;2243;48.812;9.232;2024-01-30T15:14:39;19.03;;;11.73;;